Seward, AK

9:06 PM AKDT on July 24, 2014 (GMT -0800)
Seward (PAWD) Elev 20 ft | 60.13 °N, 149.42 °W | Change Station

Current weather conditions updated 13 minutes ago

Scattered Clouds
Scattered Clouds
58 °F
Feels Like 58 °F
N
9
Wind Variable Wind from SSE

Tomorrow is forecast to be nearly the same temperature as today. Rain.

Today
High -- | Low -- °F
--% Chance of Precip.
Yesterday
High -- | Low -- °F
Precip. -- in
5:19 AM 10:47 PM
Waning Crescent, 3% visible
Pressure 29.82 in
Visibility 10.0 miles
Clouds Scattered Clouds 4900 ft
Scattered Clouds 5500 ft
Dew Point 51 °F
Humidity 78%
Rainfall 0.00 in
Snow Depth 0 in , 13 in
UV 0 out of 12
Pollen Not available.
Air Quality Not available.
Flu Activity Not available.
METAR PAWD 250453Z AUTO 16008KT 10SM SCT049 SCT055 14/11 A2982 RMK AO2 SLP098 T01440106 TSNO

More Conditions Fewer Conditions

Pressure 29.82 in
Visibility 10.0 miles
Clouds Scattered Clouds 4900 ft
Scattered Clouds 5500 ft
Dew Point 51 °F
Humidity 78%
Rainfall 0.00 in
Snow Depth 0 in , 13 in
UV 0 out of 12
Pollen Not available.
Air Quality Not available.
Flu Activity Not available.
METAR PAWD 250453Z AUTO 16008KT 10SM SCT049 SCT055 14/11 A2982 RMK AO2 SLP098 T01440106 TSNO

More Conditions Fewer Conditions

10-Day Weather Forecast

Almanac

Astronomy

Jul. 24, 2014 Rise Set
Actual Time 5:19 AM AKDT 10:47 PM AKDT
Civil Twilight 4:11 AM AKDT 11:54 PM AKDT
Nautical Twilight 2:36 AM AKDT 1:31 AM AKDT
Astronomical Twilight Sun does not rise Sun does not rise
Moon 3:44 AM AKDT (7/24) 8:56 PM AKDT (7/24)
Length of Visible Light 19h 43m
Length of Day
17h 27m
Tomorrow will be 4m 30s shorter.
Waning Crescent, 3% of the Moon is Illuminated
Jul 25
Waning Crescent
Jul 26
New
Aug 3
First Quarter
Aug 10
Full
Aug 17
Last Quarter

Yesterday's Extremes

State Highs State Lows

Community

WunderPhotos

Upload Photos

1,737,245 photos uploaded!

Nearby

Snow Depth

Station Depth Elevation
Grouse Creek Divide 0 in 700 ft
Cooper Lake 13 in 1200 ft
Summit Creek 0 in 1400 ft
Grandview 5 in 1100 ft
MF Bradley River 25 in 2300 ft

Earthquake Activity

City Distance Mag. Time & Date
No recent earthquake activity has been reported nearby.
Minimum magnitude displayed is 2.5.

Coastal Water Temperatures

Place Temperature
No Stations Reporting

Nearby Weather Stations

Station Location Temp. Windchill Dew Point Humidity Wind Precip. Elev Updated Type
Oak Street Forest Acres Seward Alaska, Seward, AK 57.9 °F - 51 °F 78% NNE  at  0.0 mph 0.00 in / hr 144 ft 9:05 PM AKDT Rapid Fire
RAWS PEDERSEN LAGOON AK, Seward, AK 54 °F - 48 °F 80% ENE  at  2 mph 0.00 in / hr 625 ft 8:28 PM AKDT MADIS
RAWS KENAI LAKE AK, Moose Pass, AK 59 °F - 47 °F 65% South  at  2 mph 0.00 in / hr 470 ft 7:56 PM AKDT MADIS
RAWS HARDING ICEFIELD AK, Seward, AK 40 °F 30 °F 36 °F 85% NNW  at  20 mph 0.00 in / hr 4299 ft 7:43 PM AKDT MADIS

Show More Stations Show Fewer Stations